createdAt,value
2019-05-23T00:02:48.751Z,14.80
2019-05-23T00:05:46.457Z,14.80
2019-05-23T00:08:18.902Z,14.70
2019-05-23T00:11:01.389Z,14.60
2019-05-23T00:13:49.257Z,14.50
2019-05-23T00:16:21.089Z,14.50
2019-05-23T00:18:51.906Z,14.50
2019-05-23T00:21:20.700Z,14.40
2019-05-23T00:23:49.846Z,14.40
2019-05-23T00:26:18.844Z,14.40
2019-05-23T00:28:48.959Z,14.40
2019-05-23T00:31:55.169Z,14.40
2019-05-23T00:34:25.415Z,14.40
2019-05-23T00:36:54.676Z,14.40
2019-05-23T00:39:24.107Z,14.40
2019-05-23T00:41:53.713Z,14.30
2019-05-23T00:44:22.952Z,14.30
2019-05-23T00:46:52.351Z,14.10
2019-05-23T00:49:21.888Z,14.10
2019-05-23T00:51:52.775Z,14.00
2019-05-23T00:54:21.593Z,14.00
2019-05-23T00:56:50.789Z,14.00
2019-05-23T00:59:27.088Z,14.00
2019-05-23T01:01:52.461Z,14.00
2019-05-23T01:04:21.692Z,13.80
2019-05-23T01:06:50.777Z,13.80
2019-05-23T01:09:19.506Z,13.80
2019-05-23T01:11:48.633Z,13.80
2019-05-23T01:14:18.041Z,13.70
2019-05-23T01:16:47.782Z,13.70
2019-05-23T01:19:16.977Z,13.60
2019-05-23T01:21:58.603Z,13.50
2019-05-23T01:24:31.579Z,13.50
2019-05-23T01:27:01.619Z,13.40
2019-05-23T01:29:37.656Z,13.40
2019-05-23T01:32:12.274Z,13.30
2019-05-23T01:34:41.065Z,13.30
2019-05-23T01:37:10.872Z,13.40
2019-05-23T01:39:39.371Z,13.30
2019-05-23T01:42:09.619Z,13.30
2019-05-23T01:44:38.155Z,13.30
2019-05-23T01:47:08.468Z,13.30
2019-05-23T01:49:36.954Z,13.30
2019-05-23T01:52:06.650Z,13.30
2019-05-23T01:54:35.542Z,13.30
2019-05-23T01:57:05.150Z,13.30
2019-05-23T01:59:34.017Z,13.30
2019-05-23T02:02:03.605Z,13.20
2019-05-23T02:04:32.225Z,13.20
2019-05-23T02:07:00.921Z,13.20
2019-05-23T02:09:30.223Z,13.10
2019-05-23T02:12:01.079Z,13.10
2019-05-23T02:14:29.874Z,13.00
2019-05-23T02:16:59.620Z,13.00
2019-05-23T02:19:28.652Z,13.00
2019-05-23T02:21:58.286Z,13.00
2019-05-23T02:24:27.592Z,13.00
2019-05-23T02:26:56.218Z,12.90
2019-05-23T02:29:25.607Z,12.90
2019-05-23T02:31:54.153Z,12.80
2019-05-23T02:34:22.631Z,12.80
2019-05-23T02:36:51.567Z,12.70
2019-05-23T02:39:42.425Z,12.70
2019-05-23T02:42:21.876Z,12.70
2019-05-23T02:44:50.966Z,12.60
2019-05-23T02:47:29.590Z,12.60
2019-05-23T02:49:59.686Z,12.60
2019-05-23T02:59:52.658Z,12.40
2019-05-23T03:02:54.228Z,12.30
2019-05-23T03:05:25.610Z,12.30
2019-05-23T03:07:56.298Z,12.20
2019-05-23T03:10:28.306Z,12.20
2019-05-23T03:12:58.278Z,12.20
2019-05-23T03:15:27.994Z,12.30
2019-05-23T03:18:00.286Z,12.20
2019-05-23T03:20:29.944Z,12.20
2019-05-23T03:23:04.185Z,12.20
2019-05-23T03:26:15.186Z,12.10
2019-05-23T03:28:43.676Z,12.10
2019-05-23T03:31:29.861Z,12.10
2019-05-23T03:33:51.718Z,12.00
2019-05-23T03:36:21.666Z,12.00
2019-05-23T03:38:51.519Z,12.00
2019-05-23T03:41:21.350Z,12.00
2019-05-23T03:43:50.306Z,11.90
2019-05-23T03:46:21.787Z,11.90
2019-05-23T03:48:52.834Z,11.90
2019-05-23T03:51:23.488Z,11.90
2019-05-23T03:53:53.931Z,11.90
2019-05-23T03:56:22.457Z,11.90
2019-05-23T03:58:53.947Z,11.90
2019-05-23T04:01:24.562Z,11.80
2019-05-23T04:03:54.670Z,11.80
2019-05-23T04:06:23.310Z,11.80
2019-05-23T04:08:53.095Z,11.70
2019-05-23T04:11:21.449Z,11.70
2019-05-23T04:13:50.555Z,11.70
2019-05-23T04:16:19.862Z,11.70
2019-05-23T04:18:48.656Z,11.70
2019-05-23T04:21:21.966Z,11.60
2019-05-23T04:23:50.524Z,11.60
2019-05-23T04:26:20.594Z,11.60
2019-05-23T04:28:49.331Z,11.60
2019-05-23T04:31:18.332Z,11.60
2019-05-23T04:33:46.754Z,11.60
2019-05-23T04:36:15.252Z,11.60
2019-05-23T04:38:44.059Z,11.60
2019-05-23T04:41:12.949Z,11.60
2019-05-23T04:43:41.708Z,11.60
2019-05-23T04:46:10.478Z,11.50
2019-05-23T04:48:38.909Z,11.50
2019-05-23T04:51:08.403Z,11.50
2019-05-23T04:53:37.237Z,11.50
2019-05-23T04:56:05.921Z,11.50
2019-05-23T04:58:36.153Z,11.50
2019-05-23T05:01:04.848Z,11.60
2019-05-23T05:03:33.878Z,11.70
2019-05-23T05:06:03.665Z,11.80
2019-05-23T05:08:32.106Z,11.80
2019-05-23T05:11:00.934Z,11.90
2019-05-23T05:13:29.964Z,12.00
2019-05-23T05:15:58.851Z,12.10
2019-05-23T05:18:28.775Z,12.20
2019-05-23T05:20:57.349Z,12.20
2019-05-23T05:23:25.789Z,12.20
2019-05-23T05:25:54.360Z,12.30
2019-05-23T05:28:22.897Z,12.30
2019-05-23T05:30:51.630Z,12.40
2019-05-23T05:33:20.508Z,12.50
2019-05-23T05:35:49.062Z,12.70
2019-05-23T05:38:18.201Z,12.90
2019-05-23T05:40:46.891Z,13.20
2019-05-23T05:43:15.522Z,13.40
2019-05-23T05:45:44.270Z,13.60
2019-05-23T05:48:13.375Z,13.90
2019-05-23T05:50:42.575Z,14.30
2019-05-23T05:53:11.000Z,14.80
2019-05-23T05:55:39.481Z,15.40
2019-05-23T05:58:07.911Z,16.00
2019-05-23T06:00:56.057Z,16.70
2019-05-23T06:03:24.738Z,17.30
2019-05-23T06:06:11.184Z,17.90
2019-05-23T06:08:42.721Z,18.40
2019-05-23T06:11:12.084Z,19.00
2019-05-23T06:13:40.613Z,19.50
2019-05-23T06:16:09.217Z,19.90
2019-05-23T06:18:37.675Z,20.40
2019-05-23T06:21:07.309Z,20.80
2019-05-23T06:23:37.313Z,21.00
2019-05-23T06:26:05.838Z,21.20
2019-05-23T06:28:34.312Z,21.50
2019-05-23T06:31:03.306Z,22.00
2019-05-23T06:33:32.294Z,22.50
2019-05-23T06:36:01.376Z,22.80
2019-05-23T06:38:30.620Z,23.10
2019-05-23T06:40:59.406Z,23.30
2019-05-23T06:43:28.041Z,23.60
2019-05-23T06:45:58.195Z,23.90
2019-05-23T06:48:27.268Z,24.30
2019-05-23T06:50:55.699Z,24.50
2019-05-23T06:53:24.184Z,24.80
2019-05-23T06:55:52.601Z,24.90
2019-05-23T06:58:22.683Z,25.10
2019-05-23T07:00:51.963Z,25.10
2019-05-23T07:03:20.622Z,25.30
2019-05-23T07:05:49.074Z,25.50
2019-05-23T07:08:19.353Z,25.70
2019-05-23T07:10:47.819Z,25.90
2019-05-23T07:13:17.465Z,26.10
2019-05-23T07:15:46.081Z,26.30
2019-05-23T07:18:14.669Z,26.30
2019-05-23T07:20:43.105Z,26.30
2019-05-23T07:23:12.751Z,26.40
2019-05-23T07:25:41.935Z,26.70
2019-05-23T07:28:29.608Z,26.80
2019-05-23T07:30:58.679Z,26.50
2019-05-23T07:33:27.144Z,26.90
2019-05-23T07:35:56.264Z,27.00
2019-05-23T07:38:24.801Z,27.10
2019-05-23T07:40:54.039Z,27.20
2019-05-23T07:43:22.826Z,27.20
2019-05-23T07:45:54.254Z,27.30
2019-05-23T07:48:22.856Z,27.40
2019-05-23T07:50:51.389Z,27.50
2019-05-23T07:53:33.853Z,27.70
2019-05-23T07:56:02.928Z,27.80
2019-05-23T07:58:31.627Z,27.90
2019-05-23T08:01:02.355Z,28.10
2019-05-23T08:03:33.730Z,28.20
2019-05-23T08:06:03.166Z,28.20
2019-05-23T08:08:31.689Z,28.30
2019-05-23T08:11:00.269Z,28.20
2019-05-23T08:13:29.177Z,28.20
2019-05-23T08:15:57.826Z,28.20
2019-05-23T08:18:26.531Z,28.20
2019-05-23T08:20:55.636Z,28.00
2019-05-23T08:23:24.880Z,28.00
2019-05-23T08:25:53.672Z,27.90
2019-05-23T08:28:22.821Z,27.80
2019-05-23T08:30:51.393Z,27.80
2019-05-23T08:33:19.833Z,27.70
2019-05-23T08:35:48.441Z,27.70
2019-05-23T08:38:18.189Z,27.50
2019-05-23T08:40:47.264Z,27.40
2019-05-23T08:43:15.694Z,27.30
2019-05-23T08:45:44.187Z,27.20
2019-05-23T08:48:13.241Z,27.10
2019-05-23T08:50:41.734Z,27.00
2019-05-23T08:53:10.178Z,27.00
2019-05-23T08:55:38.986Z,26.90
2019-05-23T08:58:08.935Z,26.80
2019-05-23T09:00:40.281Z,26.80
2019-05-23T09:03:09.929Z,26.70
2019-05-23T09:05:40.694Z,26.70
2019-05-23T09:08:11.465Z,26.70
2019-05-23T09:10:41.270Z,26.60
2019-05-23T09:13:10.162Z,26.60
2019-05-23T09:15:38.682Z,26.70
2019-05-23T09:18:07.834Z,26.80
2019-05-23T09:20:37.070Z,26.90
2019-05-23T09:23:05.724Z,26.90
2019-05-23T09:25:34.234Z,27.00
2019-05-23T09:28:03.713Z,27.00
2019-05-23T09:30:32.802Z,27.20
2019-05-23T09:33:01.537Z,27.20
2019-05-23T09:35:31.273Z,27.30
2019-05-23T09:37:59.991Z,27.50
2019-05-23T09:40:28.529Z,27.50
2019-05-23T09:42:57.327Z,27.60
2019-05-23T09:45:26.170Z,27.80
2019-05-23T09:47:54.664Z,28.00
2019-05-23T09:50:23.880Z,28.20
2019-05-23T09:52:52.522Z,28.30
2019-05-23T09:55:21.206Z,28.30
2019-05-23T09:57:50.391Z,28.30
2019-05-23T10:00:23.507Z,28.30
2019-05-23T10:02:52.666Z,28.30
2019-05-23T10:05:40.876Z,28.40
2019-05-23T10:07:52.624Z,28.40
2019-05-23T10:10:22.110Z,28.60
2019-05-23T10:12:51.125Z,28.60
2019-05-23T10:15:44.860Z,28.70
2019-05-23T10:18:17.860Z,28.80
2019-05-23T10:20:46.315Z,28.80
2019-05-23T10:23:15.184Z,28.80
2019-05-23T10:25:43.733Z,28.90
2019-05-23T10:28:12.336Z,28.90
2019-05-23T10:30:41.149Z,29.00
2019-05-23T10:33:12.782Z,29.20
2019-05-23T10:35:56.950Z,29.30
2019-05-23T10:38:12.253Z,29.40
2019-05-23T10:40:41.071Z,29.60
2019-05-23T10:43:09.921Z,29.60
2019-05-23T10:45:38.357Z,29.60
2019-05-23T10:48:07.559Z,29.70
2019-05-23T10:50:44.944Z,29.80
2019-05-23T10:53:06.585Z,29.80
2019-05-23T10:55:35.009Z,29.90
2019-05-23T10:58:04.378Z,29.90
2019-05-23T11:00:33.362Z,29.90
2019-05-23T11:03:02.117Z,29.90
2019-05-23T11:05:30.553Z,29.80
2019-05-23T11:07:59.457Z,29.80
2019-05-23T11:10:28.329Z,29.80
2019-05-23T11:12:56.877Z,29.80
2019-05-23T11:15:25.592Z,29.80
2019-05-23T11:17:54.250Z,29.60
2019-05-23T11:20:22.985Z,29.80
2019-05-23T11:22:51.621Z,29.70
2019-05-23T11:25:20.216Z,29.60
2019-05-23T11:27:48.710Z,29.70
2019-05-23T11:30:26.635Z,29.70
2019-05-23T11:32:55.198Z,29.80
2019-05-23T11:35:24.384Z,29.80
2019-05-23T11:37:52.826Z,29.80
2019-05-23T11:40:21.316Z,29.90
2019-05-23T11:42:52.604Z,29.90
2019-05-23T11:45:21.186Z,30.10
2019-05-23T11:47:49.718Z,30.10
2019-05-23T11:50:18.213Z,30.20
2019-05-23T11:52:46.846Z,30.20
2019-05-23T11:55:15.905Z,30.20
2019-05-23T11:57:44.432Z,30.30
2019-05-23T12:00:17.049Z,30.30
2019-05-23T12:02:46.262Z,30.30
2019-05-23T12:05:19.091Z,30.30
2019-05-23T12:07:47.768Z,30.40
2019-05-23T12:10:16.865Z,30.40
2019-05-23T12:12:45.395Z,30.40
2019-05-23T12:15:18.531Z,30.30
2019-05-23T12:17:47.157Z,30.30
2019-05-23T12:20:16.972Z,30.30
2019-05-23T12:22:45.743Z,30.40
2019-05-23T12:25:21.848Z,30.40
2019-05-23T12:27:44.603Z,30.40
2019-05-23T12:30:14.789Z,30.40
2019-05-23T12:32:43.415Z,30.40
2019-05-23T12:35:12.405Z,30.40
2019-05-23T12:37:41.105Z,30.40
2019-05-23T12:40:11.676Z,30.30
2019-05-23T12:42:40.209Z,30.40
2019-05-23T12:45:08.984Z,30.30
2019-05-23T12:48:06.034Z,30.30
2019-05-23T12:50:40.705Z,30.30
2019-05-23T12:53:10.445Z,30.30
2019-05-23T12:55:38.953Z,30.30
2019-05-23T12:58:07.690Z,30.20
2019-05-23T13:00:46.705Z,30.10
2019-05-23T13:03:15.850Z,29.90
2019-05-23T13:05:44.389Z,29.90
2019-05-23T13:08:13.424Z,29.80
2019-05-23T13:10:41.879Z,29.90
2019-05-23T13:13:10.568Z,29.80
2019-05-23T13:15:39.325Z,29.90
2019-05-23T13:18:08.238Z,29.90
2019-05-23T13:20:38.186Z,29.90
2019-05-23T13:23:07.385Z,29.80
2019-05-23T13:25:36.568Z,29.50
2019-05-23T13:28:05.613Z,29.60
2019-05-23T13:30:34.680Z,29.40
2019-05-23T13:33:03.919Z,29.40
2019-05-23T13:35:33.358Z,29.50
2019-05-23T13:38:01.871Z,29.50
2019-05-23T13:40:31.288Z,29.40
2019-05-23T13:42:59.773Z,29.20
2019-05-23T13:45:28.309Z,29.10
2019-05-23T13:47:56.798Z,29.20
2019-05-23T13:50:25.331Z,29.20
2019-05-23T13:52:53.921Z,29.10
2019-05-23T13:55:23.301Z,29.10
2019-05-23T13:57:51.794Z,29.10
2019-05-23T14:00:20.945Z,29.10
2019-05-23T14:02:49.938Z,29.10
2019-05-23T14:05:19.334Z,28.90
2019-05-23T14:07:48.157Z,28.90
2019-05-23T14:10:17.995Z,29.00
2019-05-23T14:12:47.453Z,29.00
2019-05-23T14:15:20.010Z,28.90
2019-05-23T14:17:49.241Z,28.90
2019-05-23T14:20:17.919Z,28.80
2019-05-23T14:22:52.466Z,28.70
2019-05-23T14:25:21.601Z,28.60
2019-05-23T14:28:09.444Z,28.60
2019-05-23T14:30:57.269Z,28.50
2019-05-23T14:33:54.687Z,28.40
2019-05-23T14:36:57.397Z,28.30
2019-05-23T14:39:32.921Z,28.30
2019-05-23T14:42:32.801Z,27.90
2019-05-23T14:45:01.504Z,28.20
2019-05-23T14:47:44.653Z,28.20
2019-05-23T14:50:33.716Z,28.00
2019-05-23T14:53:03.681Z,27.90
2019-05-23T14:55:32.873Z,27.80
2019-05-23T14:58:01.596Z,27.70
2019-05-23T15:00:30.682Z,27.60
2019-05-23T15:02:59.300Z,27.60
2019-05-23T15:05:27.902Z,27.50
2019-05-23T15:07:56.436Z,27.40
2019-05-23T15:10:25.013Z,27.40
2019-05-23T15:12:53.447Z,27.50
2019-05-23T15:15:22.632Z,27.50
2019-05-23T15:17:51.086Z,27.50
2019-05-23T15:20:20.021Z,27.50
2019-05-23T15:22:48.457Z,27.40
2019-05-23T15:25:18.886Z,27.30
2019-05-23T15:27:47.754Z,27.30
2019-05-23T15:30:16.244Z,27.30
2019-05-23T15:32:45.084Z,27.20
2019-05-23T15:35:13.785Z,27.20
2019-05-23T15:37:42.297Z,27.10
2019-05-23T15:40:10.909Z,27.00
2019-05-23T15:42:39.925Z,27.00
2019-05-23T15:45:08.670Z,26.90
2019-05-23T15:47:37.275Z,26.90
2019-05-23T15:50:11.095Z,26.90
2019-05-23T15:52:50.616Z,26.90
2019-05-23T15:55:50.554Z,26.80
2019-05-23T15:58:41.278Z,26.70
2019-05-23T16:01:16.439Z,26.70
2019-05-23T16:03:50.865Z,26.70
2019-05-23T16:06:21.519Z,26.70
2019-05-23T16:08:49.958Z,26.60
2019-05-23T16:11:18.396Z,26.60
2019-05-23T16:13:46.875Z,26.50
2019-05-23T16:16:15.301Z,26.40
2019-05-23T16:18:44.403Z,26.30
2019-05-23T16:21:13.538Z,26.30
2019-05-23T16:23:42.129Z,26.30
2019-05-23T16:26:11.705Z,26.30
2019-05-23T16:28:40.513Z,26.30
2019-05-23T16:31:09.133Z,26.20
2019-05-23T16:33:38.185Z,26.10
2019-05-23T16:36:07.007Z,26.10
2019-05-23T16:38:36.552Z,26.10
2019-05-23T16:41:05.173Z,26.10
2019-05-23T16:43:33.760Z,25.90
2019-05-23T16:46:02.181Z,25.90
2019-05-23T16:48:30.882Z,25.90
2019-05-23T16:50:59.426Z,25.80
2019-05-23T16:53:28.487Z,25.80
2019-05-23T16:56:17.104Z,25.70
2019-05-23T16:59:04.319Z,25.60
2019-05-23T17:02:06.288Z,25.60
2019-05-23T17:04:42.411Z,25.50
2019-05-23T17:07:32.959Z,25.40
2019-05-23T17:10:09.956Z,25.40
2019-05-23T17:12:45.601Z,25.30
2019-05-23T17:15:36.304Z,25.20
2019-05-23T17:18:19.192Z,25.10
2019-05-23T17:21:01.988Z,25.00
2019-05-23T17:23:55.837Z,24.90
2019-05-23T17:26:33.134Z,24.80
2019-05-23T17:29:02.209Z,24.70
2019-05-23T17:31:34.941Z,24.60
2019-05-23T17:34:03.652Z,24.60
2019-05-23T17:36:32.133Z,24.60
2019-05-23T17:39:00.582Z,24.50
2019-05-23T17:41:29.364Z,24.40
2019-05-23T17:43:57.807Z,24.30
2019-05-23T17:46:26.293Z,24.30
2019-05-23T17:48:55.164Z,24.30
2019-05-23T17:51:24.686Z,24.20
2019-05-23T17:53:53.113Z,24.10
2019-05-23T17:56:21.763Z,24.00
2019-05-23T17:58:50.953Z,23.90
2019-05-23T18:01:20.275Z,23.80
2019-05-23T18:03:49.073Z,23.70
2019-05-23T18:06:17.567Z,23.60
2019-05-23T18:08:46.109Z,23.50
2019-05-23T18:11:16.173Z,23.50
2019-05-23T18:13:44.914Z,23.40
2019-05-23T18:16:13.754Z,23.30
2019-05-23T18:18:42.355Z,23.30
2019-05-23T18:21:12.263Z,23.30
2019-05-23T18:23:40.707Z,23.20
2019-05-23T18:26:09.205Z,23.20
2019-05-23T18:28:37.951Z,23.10
2019-05-23T18:31:15.247Z,23.00
2019-05-23T18:33:44.506Z,23.00
2019-05-23T18:36:13.107Z,22.90
2019-05-23T18:38:41.683Z,22.80
2019-05-23T18:41:10.784Z,22.80
2019-05-23T18:43:39.833Z,22.70
2019-05-23T18:46:13.483Z,22.60
2019-05-23T18:48:42.573Z,22.60
2019-05-23T18:51:11.544Z,22.50
2019-05-23T18:53:41.391Z,22.40
2019-05-23T18:56:11.129Z,22.30
2019-05-23T18:58:40.060Z,22.30
2019-05-23T19:01:25.094Z,22.20
2019-05-23T19:03:56.705Z,22.10
2019-05-23T19:06:27.164Z,22.00
2019-05-23T19:08:57.059Z,22.00
2019-05-23T19:11:27.682Z,21.80
2019-05-23T19:13:58.008Z,21.80
2019-05-23T19:16:29.321Z,21.70
2019-05-23T19:19:00.102Z,21.60
2019-05-23T19:21:30.634Z,21.60
2019-05-23T19:24:00.699Z,21.50
2019-05-23T19:26:30.745Z,21.40
2019-05-23T19:29:00.593Z,21.40
2019-05-23T19:31:31.598Z,21.20
2019-05-23T19:34:01.460Z,21.10
2019-05-23T19:36:32.185Z,21.00
2019-05-23T19:39:02.612Z,20.90
2019-05-23T19:41:37.339Z,20.80
2019-05-23T19:44:05.321Z,20.80
2019-05-23T19:50:01.152Z,20.70
2019-05-23T19:52:31.209Z,20.60
2019-05-23T19:55:01.609Z,20.60
2019-05-23T19:57:33.310Z,20.50
2019-05-23T20:00:03.812Z,20.50
2019-05-23T20:02:48.212Z,20.50
2019-05-23T20:08:37.873Z,20.50
2019-05-23T20:11:08.698Z,20.30
2019-05-23T20:13:40.961Z,20.30
2019-05-23T20:16:36.434Z,20.20
2019-05-23T20:19:34.890Z,20.20
2019-05-23T20:22:30.411Z,20.00
2019-05-23T20:25:01.612Z,19.90
2019-05-23T20:28:06.264Z,19.70
2019-05-23T20:31:05.192Z,19.70
2019-05-23T20:33:48.117Z,19.50
2019-05-23T20:36:28.353Z,19.40
2019-05-23T20:42:33.426Z,19.30
2019-05-23T20:45:13.519Z,19.30
2019-05-23T20:47:46.921Z,19.30
2019-05-23T20:50:19.779Z,19.30
2019-05-23T20:53:03.541Z,19.20
2019-05-23T20:55:53.651Z,19.10
2019-05-23T20:58:32.680Z,19.10
2019-05-23T21:01:26.258Z,18.90
2019-05-23T21:03:59.770Z,18.80
2019-05-23T21:06:42.576Z,18.70
2019-05-23T21:09:11.009Z,18.60
2019-05-23T21:11:39.517Z,18.40
2019-05-23T21:14:08.049Z,18.30
2019-05-23T21:16:36.546Z,18.10
2019-05-23T21:19:04.994Z,18.10
2019-05-23T21:21:33.500Z,18.00
2019-05-23T21:24:02.903Z,18.00
2019-05-23T21:26:31.916Z,18.00
2019-05-23T21:29:00.341Z,18.00
2019-05-23T21:31:29.052Z,17.80
2019-05-23T21:33:57.582Z,17.70
2019-05-23T21:36:26.654Z,17.60
2019-05-23T21:38:55.106Z,17.60
2019-05-23T21:41:23.711Z,17.40
2019-05-23T21:43:54.009Z,17.40
2019-05-23T21:46:22.549Z,17.30
2019-05-23T21:48:51.407Z,17.30
2019-05-23T21:51:20.977Z,17.30
2019-05-23T21:53:51.095Z,17.30
2019-05-23T21:56:19.817Z,17.40
2019-05-23T21:58:48.289Z,17.40
2019-05-23T22:01:41.406Z,17.30
2019-05-23T22:04:29.675Z,17.20
2019-05-23T22:07:02.603Z,17.20
2019-05-23T22:09:31.240Z,17.00
2019-05-23T22:12:00.341Z,16.90
2019-05-23T22:14:28.937Z,16.80
2019-05-23T22:16:57.428Z,16.80
2019-05-23T22:19:28.566Z,16.60
2019-05-23T22:21:57.157Z,16.70
2019-05-23T22:24:25.603Z,16.70
2019-05-23T22:26:54.098Z,16.60
2019-05-23T22:29:22.749Z,16.60
2019-05-23T22:31:51.229Z,16.70
2019-05-23T22:34:39.181Z,16.60
2019-05-23T22:37:32.854Z,16.70
2019-05-23T22:40:02.153Z,16.70
2019-05-23T22:42:31.843Z,16.60
2019-05-23T22:45:00.276Z,16.60
2019-05-23T22:47:29.372Z,16.60
2019-05-23T22:49:57.909Z,16.60
2019-05-23T22:52:26.474Z,16.50
2019-05-23T22:54:54.917Z,16.50
2019-05-23T22:57:23.397Z,16.40
2019-05-23T22:59:51.839Z,16.30
2019-05-23T23:02:20.901Z,16.30
2019-05-23T23:04:49.435Z,16.30
2019-05-23T23:07:17.940Z,16.30
2019-05-23T23:09:46.475Z,16.20
2019-05-23T23:12:14.965Z,16.20
2019-05-23T23:14:43.395Z,16.10
2019-05-23T23:17:11.996Z,16.20
2019-05-23T23:19:40.527Z,16.10
2019-05-23T23:22:11.827Z,16.20
2019-05-23T23:24:40.249Z,16.10
2019-05-23T23:27:08.885Z,16.10
2019-05-23T23:29:37.773Z,16.10
2019-05-23T23:32:06.999Z,16.10
2019-05-23T23:34:35.486Z,16.10
2019-05-23T23:37:04.093Z,16.10
2019-05-23T23:39:32.525Z,16.10
2019-05-23T23:42:01.005Z,16.00
2019-05-23T23:44:34.681Z,16.00
2019-05-23T23:47:22.472Z,15.90
2019-05-23T23:50:08.946Z,15.90
2019-05-23T23:52:55.625Z,15.80
2019-05-23T23:55:42.430Z,15.80
2019-05-23T23:58:10.262Z,15.80
